createdAt,value
2017-05-31T00:00:32.367Z,0
2017-05-31T00:01:12.944Z,0
2017-05-31T00:01:53.532Z,0
2017-05-31T00:02:34.117Z,0
2017-05-31T00:03:14.705Z,0
2017-05-31T00:03:55.283Z,0
2017-05-31T00:04:35.865Z,0
2017-05-31T00:05:16.446Z,0
2017-05-31T00:05:57.028Z,0
2017-05-31T00:06:37.612Z,0
2017-05-31T00:07:18.222Z,0
2017-05-31T00:07:58.797Z,0
2017-05-31T00:08:39.377Z,0
2017-05-31T00:09:19.968Z,0
2017-05-31T00:10:00.553Z,0
2017-05-31T00:10:41.148Z,0
2017-05-31T00:11:21.726Z,0
2017-05-31T00:12:02.314Z,0
2017-05-31T00:12:42.899Z,0
2017-05-31T00:13:23.509Z,0
2017-05-31T00:14:04.088Z,0
2017-05-31T00:14:44.697Z,0
2017-05-31T00:15:25.273Z,0
2017-05-31T00:16:05.852Z,0
2017-05-31T00:16:46.427Z,0
2017-05-31T00:17:27.004Z,0
2017-05-31T00:18:07.586Z,0
2017-05-31T00:18:48.166Z,0
2017-05-31T00:19:28.746Z,0
2017-05-31T00:20:09.328Z,0
2017-05-31T00:20:49.900Z,0
2017-05-31T00:21:30.484Z,0
2017-05-31T00:22:11.073Z,0
2017-05-31T00:22:51.662Z,0
2017-05-31T00:23:32.249Z,0
2017-05-31T00:24:12.829Z,0
2017-05-31T00:24:53.408Z,0
2017-05-31T00:25:33.991Z,0
2017-05-31T00:26:14.585Z,0
2017-05-31T00:26:55.178Z,0
2017-05-31T00:27:35.765Z,0
2017-05-31T00:28:16.346Z,0
2017-05-31T00:28:56.931Z,0
2017-05-31T00:29:37.513Z,0
2017-05-31T00:30:18.109Z,0
2017-05-31T00:30:58.693Z,0
2017-05-31T00:31:39.270Z,0
2017-05-31T00:32:19.851Z,0
2017-05-31T00:33:00.437Z,0
2017-05-31T00:33:41.017Z,0
2017-05-31T00:34:21.594Z,0
2017-05-31T00:35:02.171Z,0
2017-05-31T00:35:42.744Z,0
2017-05-31T00:36:23.333Z,0
2017-05-31T00:37:03.919Z,0
2017-05-31T00:37:44.507Z,0
2017-05-31T00:38:25.090Z,0
2017-05-31T00:39:05.676Z,0
2017-05-31T00:39:46.277Z,0
2017-05-31T00:40:26.859Z,0
2017-05-31T00:41:07.450Z,0
2017-05-31T00:41:48.026Z,0
2017-05-31T00:42:28.607Z,0
2017-05-31T00:43:09.204Z,0
2017-05-31T00:43:49.783Z,0
2017-05-31T00:44:30.368Z,0
2017-05-31T00:45:10.943Z,0
2017-05-31T00:45:51.564Z,0
2017-05-31T00:46:32.105Z,0
2017-05-31T00:47:12.687Z,0
2017-05-31T00:47:53.268Z,0
2017-05-31T00:48:33.853Z,0
2017-05-31T00:49:14.436Z,0
2017-05-31T00:49:55.017Z,0
2017-05-31T00:50:35.603Z,0
2017-05-31T00:51:16.203Z,0
2017-05-31T00:51:56.779Z,0
2017-05-31T00:52:37.374Z,0
2017-05-31T00:53:17.961Z,0
2017-05-31T00:53:58.554Z,0
2017-05-31T00:54:39.144Z,0
2017-05-31T00:55:19.735Z,0
2017-05-31T00:56:00.317Z,0
2017-05-31T00:56:40.921Z,0
2017-05-31T00:57:21.513Z,0
2017-05-31T00:58:02.102Z,0
2017-05-31T00:58:42.684Z,0
2017-05-31T00:59:23.269Z,0
2017-05-31T01:00:03.859Z,0
2017-05-31T01:00:44.435Z,0
2017-05-31T01:01:25.009Z,0
2017-05-31T01:02:05.596Z,0
2017-05-31T01:02:46.189Z,0
2017-05-31T01:03:26.771Z,0
2017-05-31T01:04:07.363Z,0
2017-05-31T01:04:47.953Z,0
2017-05-31T01:05:28.528Z,0
2017-05-31T01:06:09.106Z,0
2017-05-31T01:06:49.686Z,0
2017-05-31T01:07:30.273Z,0
2017-05-31T01:08:10.855Z,0
2017-05-31T01:08:51.463Z,0
2017-05-31T01:09:32.045Z,0
2017-05-31T01:10:12.623Z,0
2017-05-31T01:10:53.216Z,0
2017-05-31T01:11:33.797Z,0
2017-05-31T01:12:14.409Z,0
2017-05-31T01:12:54.983Z,0
2017-05-31T01:13:35.568Z,0
2017-05-31T01:14:16.172Z,0
2017-05-31T01:14:56.761Z,0
2017-05-31T01:15:37.342Z,0
2017-05-31T01:16:17.926Z,0
2017-05-31T01:16:58.512Z,0
2017-05-31T01:17:39.095Z,0
2017-05-31T01:18:19.711Z,0
2017-05-31T01:19:00.289Z,0
2017-05-31T01:19:40.881Z,0
2017-05-31T01:20:21.466Z,0
2017-05-31T01:21:02.062Z,0
2017-05-31T01:21:42.636Z,0
2017-05-31T01:22:23.228Z,0
2017-05-31T01:23:03.811Z,0
2017-05-31T01:23:44.388Z,0
2017-05-31T01:24:24.967Z,0
2017-05-31T01:25:05.619Z,0
2017-05-31T01:25:46.194Z,0
2017-05-31T01:26:26.776Z,0
2017-05-31T01:27:07.354Z,0
2017-05-31T01:27:47.933Z,0
2017-05-31T01:28:28.517Z,0
2017-05-31T01:29:09.114Z,0
2017-05-31T01:29:49.705Z,0
2017-05-31T01:30:30.284Z,0
2017-05-31T01:31:10.871Z,0
2017-05-31T01:31:51.466Z,0
2017-05-31T01:32:32.045Z,0
2017-05-31T01:33:12.625Z,0
2017-05-31T01:33:53.213Z,0
2017-05-31T01:34:33.795Z,0
2017-05-31T01:35:14.390Z,0
2017-05-31T01:35:54.994Z,0
2017-05-31T01:36:35.586Z,0
2017-05-31T01:37:16.172Z,0
2017-05-31T01:37:56.757Z,0
2017-05-31T01:38:37.337Z,0
2017-05-31T01:39:17.923Z,0
2017-05-31T01:39:58.509Z,0
2017-05-31T01:40:39.097Z,0
2017-05-31T01:41:19.687Z,0
2017-05-31T01:42:00.279Z,0
2017-05-31T01:42:40.860Z,0
2017-05-31T01:43:21.440Z,0
2017-05-31T01:44:02.032Z,0
2017-05-31T01:44:42.619Z,0
2017-05-31T01:45:23.254Z,0
2017-05-31T01:46:03.775Z,0
2017-05-31T01:46:44.358Z,0
2017-05-31T01:47:24.938Z,0
2017-05-31T01:48:05.520Z,0
2017-05-31T01:48:46.110Z,0
2017-05-31T01:49:26.690Z,0
2017-05-31T01:50:07.271Z,0
2017-05-31T01:50:47.855Z,0
2017-05-31T01:51:28.433Z,0
2017-05-31T01:52:09.011Z,0
2017-05-31T01:52:49.599Z,0
2017-05-31T01:53:30.178Z,0
2017-05-31T01:54:10.765Z,0
2017-05-31T01:54:51.349Z,0
2017-05-31T01:55:31.925Z,0
2017-05-31T01:56:12.517Z,0
2017-05-31T01:56:53.104Z,0
2017-05-31T01:57:33.717Z,0
2017-05-31T01:58:14.300Z,0
2017-05-31T01:58:54.878Z,0
2017-05-31T01:59:35.467Z,0
2017-05-31T02:00:16.050Z,0
2017-05-31T02:00:56.636Z,0
2017-05-31T02:01:37.219Z,0
2017-05-31T02:02:17.809Z,0
2017-05-31T02:02:58.389Z,0
2017-05-31T02:03:39.191Z,0
2017-05-31T02:04:19.771Z,0
2017-05-31T02:05:00.353Z,0
2017-05-31T02:05:40.951Z,0
2017-05-31T02:06:21.574Z,0
2017-05-31T02:07:02.169Z,0
2017-05-31T02:07:42.729Z,0
2017-05-31T02:08:23.338Z,0
2017-05-31T02:09:03.912Z,0
2017-05-31T02:09:44.517Z,0
2017-05-31T02:10:25.098Z,0
2017-05-31T02:11:05.692Z,0
2017-05-31T02:11:46.297Z,0
2017-05-31T02:12:26.876Z,0
2017-05-31T02:13:07.473Z,4
2017-05-31T02:13:48.059Z,4
2017-05-31T02:14:28.681Z,0
2017-05-31T02:15:09.263Z,0
2017-05-31T02:15:49.854Z,0
2017-05-31T02:16:30.444Z,4
2017-05-31T02:17:11.030Z,4
2017-05-31T02:17:51.613Z,4
2017-05-31T02:18:32.192Z,0
2017-05-31T02:19:12.797Z,4
2017-05-31T02:19:53.366Z,4
2017-05-31T02:20:33.960Z,4
2017-05-31T02:21:14.536Z,4
2017-05-31T02:21:55.114Z,8
2017-05-31T02:22:35.714Z,4
2017-05-31T02:23:18.313Z,8
2017-05-31T02:23:56.909Z,4
2017-05-31T02:24:37.526Z,8
2017-05-31T02:25:18.101Z,8
2017-05-31T02:25:58.698Z,8
2017-05-31T02:26:39.324Z,8
2017-05-31T02:27:19.911Z,12
2017-05-31T02:28:00.495Z,12
2017-05-31T02:28:41.087Z,12
2017-05-31T02:29:21.681Z,16
2017-05-31T02:30:02.257Z,16
2017-05-31T02:30:42.848Z,16
2017-05-31T02:31:23.437Z,16
2017-05-31T02:32:04.019Z,20
2017-05-31T02:32:44.614Z,20
2017-05-31T02:33:25.196Z,20
2017-05-31T02:34:05.838Z,20
2017-05-31T02:34:46.363Z,24
2017-05-31T02:35:26.945Z,24
2017-05-31T02:36:07.534Z,24
2017-05-31T02:36:48.122Z,24
2017-05-31T02:37:28.703Z,28
2017-05-31T02:38:09.285Z,28
2017-05-31T02:38:49.874Z,32
2017-05-31T02:39:30.462Z,32
2017-05-31T02:40:11.055Z,36
2017-05-31T02:40:51.640Z,36
2017-05-31T02:41:34.008Z,40
2017-05-31T02:42:17.375Z,44
2017-05-31T02:42:59.603Z,48
2017-05-31T02:43:43.709Z,48
2017-05-31T02:44:29.865Z,60
2017-05-31T02:45:13.161Z,60
2017-05-31T02:45:55.512Z,64
2017-05-31T02:46:39.127Z,68
2017-05-31T02:47:21.144Z,68
2017-05-31T02:48:04.738Z,76
2017-05-31T02:48:54.023Z,80
2017-05-31T02:49:51.466Z,88
2017-05-31T02:50:37.034Z,92
2017-05-31T02:51:19.239Z,92
2017-05-31T02:52:01.579Z,100
2017-05-31T02:52:43.674Z,104
2017-05-31T02:53:25.204Z,104
2017-05-31T02:54:06.556Z,120
2017-05-31T02:54:48.421Z,108
2017-05-31T02:55:30.023Z,120
2017-05-31T02:56:14.348Z,124
2017-05-31T02:56:56.697Z,128
2017-05-31T02:57:38.560Z,144
2017-05-31T02:58:20.522Z,148
2017-05-31T02:59:02.634Z,144
2017-05-31T02:59:44.959Z,132
2017-05-31T03:00:25.548Z,164
2017-05-31T03:01:06.131Z,180
2017-05-31T03:01:46.716Z,192
2017-05-31T03:02:27.308Z,200
2017-05-31T03:03:07.909Z,200
2017-05-31T03:03:48.484Z,204
2017-05-31T03:04:29.062Z,216
2017-05-31T03:05:09.652Z,224
2017-05-31T03:05:50.226Z,232
2017-05-31T03:06:30.819Z,220
2017-05-31T03:07:11.397Z,212
2017-05-31T03:07:51.991Z,228
2017-05-31T03:08:32.579Z,248
2017-05-31T03:09:13.176Z,224
2017-05-31T03:09:53.763Z,220
2017-05-31T03:10:34.374Z,244
2017-05-31T03:11:14.947Z,244
2017-05-31T03:11:55.537Z,252
2017-05-31T03:12:36.110Z,268
2017-05-31T03:13:16.715Z,280
2017-05-31T03:13:57.304Z,232
2017-05-31T03:14:37.892Z,220
2017-05-31T03:15:18.470Z,280
2017-05-31T03:15:59.079Z,268
2017-05-31T03:16:39.671Z,272
2017-05-31T03:17:20.264Z,300
2017-05-31T03:18:00.856Z,372
2017-05-31T03:18:41.448Z,384
2017-05-31T03:19:22.031Z,328
2017-05-31T03:20:02.625Z,384
2017-05-31T03:20:43.228Z,420
2017-05-31T03:21:23.833Z,440
2017-05-31T03:22:04.423Z,440
2017-05-31T03:22:45.012Z,380
2017-05-31T03:23:25.607Z,452
2017-05-31T03:24:06.190Z,540
2017-05-31T03:24:46.785Z,564
2017-05-31T03:25:27.392Z,596
2017-05-31T03:26:07.983Z,604
2017-05-31T03:26:48.596Z,652
2017-05-31T03:27:29.187Z,652
2017-05-31T03:28:09.760Z,556
2017-05-31T03:28:50.346Z,548
2017-05-31T03:29:30.915Z,624
2017-05-31T03:30:11.509Z,660
2017-05-31T03:30:52.100Z,640
2017-05-31T03:31:32.705Z,648
2017-05-31T03:32:13.299Z,660
2017-05-31T03:32:53.879Z,644
2017-05-31T03:33:34.554Z,580
2017-05-31T03:34:15.147Z,632
2017-05-31T03:34:55.736Z,596
2017-05-31T03:35:36.317Z,552
2017-05-31T03:36:16.906Z,556
2017-05-31T03:36:57.493Z,548
2017-05-31T03:37:38.068Z,500
2017-05-31T03:38:18.644Z,440
2017-05-31T03:38:59.228Z,428
2017-05-31T03:39:39.808Z,436
2017-05-31T03:40:20.392Z,460
2017-05-31T03:41:00.983Z,492
2017-05-31T03:41:41.568Z,500
2017-05-31T03:42:22.173Z,504
2017-05-31T03:43:02.752Z,520
2017-05-31T03:43:43.365Z,508
2017-05-31T03:44:23.975Z,480
2017-05-31T03:45:04.561Z,448
2017-05-31T03:45:45.143Z,428
2017-05-31T03:46:25.740Z,416
2017-05-31T03:47:06.320Z,420
2017-05-31T03:47:46.893Z,428
2017-05-31T03:48:27.473Z,412
2017-05-31T03:49:08.062Z,428
2017-05-31T03:49:48.653Z,444
2017-05-31T03:50:29.247Z,416
2017-05-31T03:51:09.851Z,400
2017-05-31T03:51:50.447Z,412
2017-05-31T03:52:31.037Z,440
2017-05-31T03:53:11.621Z,480
2017-05-31T03:53:52.234Z,512
2017-05-31T03:54:32.823Z,576
2017-05-31T03:55:13.402Z,672
2017-05-31T03:56:32.330Z,748
2017-05-31T03:58:03.307Z,684
2017-05-31T03:58:43.896Z,668
2017-05-31T03:59:24.479Z,612
2017-05-31T04:00:42.492Z,560
2017-05-31T04:02:03.555Z,560
2017-05-31T04:02:44.137Z,592
2017-05-31T04:03:24.710Z,604
2017-05-31T04:04:05.295Z,572
2017-05-31T04:04:45.931Z,544
2017-05-31T04:05:26.517Z,488
2017-05-31T04:06:07.102Z,468
2017-05-31T04:06:47.684Z,456
2017-05-31T04:07:28.263Z,444
2017-05-31T04:08:08.857Z,416
2017-05-31T04:08:49.453Z,392
2017-05-31T04:09:30.038Z,352
2017-05-31T04:10:10.605Z,380
2017-05-31T04:10:51.213Z,384
2017-05-31T04:11:31.804Z,368
2017-05-31T04:12:12.386Z,364
2017-05-31T04:12:52.977Z,380
2017-05-31T04:13:33.563Z,372
2017-05-31T04:14:14.145Z,392
2017-05-31T04:14:54.740Z,424
2017-05-31T04:15:35.313Z,464
2017-05-31T04:16:15.885Z,512
2017-05-31T04:16:56.488Z,520
2017-05-31T04:17:37.071Z,540
2017-05-31T04:18:17.641Z,556
2017-05-31T04:18:58.235Z,496
2017-05-31T04:19:38.811Z,468
2017-05-31T04:20:19.380Z,456
2017-05-31T04:20:59.977Z,456
2017-05-31T04:21:40.554Z,484
2017-05-31T04:22:21.141Z,504
2017-05-31T04:23:01.762Z,524
2017-05-31T04:23:42.347Z,544
2017-05-31T04:24:22.924Z,548
2017-05-31T04:25:03.510Z,600
2017-05-31T04:25:44.095Z,644
2017-05-31T04:26:24.679Z,672
2017-05-31T04:27:05.257Z,716
2017-05-31T04:27:45.855Z,788
2017-05-31T04:28:26.441Z,840
2017-05-31T04:29:07.022Z,888
2017-05-31T04:29:47.602Z,948
2017-05-31T04:30:28.183Z,1004
2017-05-31T04:31:08.771Z,1012
2017-05-31T04:31:49.384Z,1020
2017-05-31T04:32:29.967Z,1008
2017-05-31T04:33:10.570Z,1008
2017-05-31T04:33:51.147Z,1032
2017-05-31T04:34:31.763Z,1076
2017-05-31T04:35:12.354Z,1096
2017-05-31T04:35:52.955Z,1052
2017-05-31T04:36:33.540Z,952
2017-05-31T04:37:14.122Z,840
2017-05-31T04:37:54.703Z,816
2017-05-31T04:38:35.287Z,844
2017-05-31T04:39:15.876Z,940
2017-05-31T04:39:56.462Z,1124
2017-05-31T04:40:37.102Z,1620
2017-05-31T04:41:17.688Z,2236
2017-05-31T04:41:58.278Z,2664
2017-05-31T04:42:38.873Z,2464
2017-05-31T04:43:19.464Z,1872
2017-05-31T04:44:00.048Z,1472
2017-05-31T04:44:40.641Z,1328
2017-05-31T04:45:21.220Z,1352
2017-05-31T04:46:01.818Z,1496
2017-05-31T04:46:42.397Z,1636
2017-05-31T04:47:23.031Z,1692
2017-05-31T04:48:03.624Z,1332
2017-05-31T04:48:44.201Z,1432
2017-05-31T04:49:24.807Z,1552
2017-05-31T04:50:05.385Z,1884
2017-05-31T04:50:45.974Z,2192
2017-05-31T04:51:26.564Z,2268
2017-05-31T04:52:07.158Z,2352
2017-05-31T04:52:47.746Z,2516
2017-05-31T04:53:28.342Z,2480
2017-05-31T04:54:08.926Z,2456
2017-05-31T04:54:49.519Z,2420
2017-05-31T04:55:30.103Z,2316
2017-05-31T04:56:10.683Z,2140
2017-05-31T04:56:51.262Z,2148
2017-05-31T04:57:31.845Z,2172
2017-05-31T04:58:12.430Z,2316
2017-05-31T04:58:53.012Z,2160
2017-05-31T04:59:33.592Z,2156
2017-05-31T05:00:14.174Z,2240
2017-05-31T05:00:54.756Z,2392
2017-05-31T05:01:35.340Z,2396
2017-05-31T05:02:15.921Z,2344
2017-05-31T05:02:56.497Z,2400
2017-05-31T05:03:37.077Z,2388
2017-05-31T05:04:17.692Z,2488
2017-05-31T05:04:58.269Z,2452
2017-05-31T05:05:38.850Z,2208
2017-05-31T05:06:19.434Z,2016
2017-05-31T05:07:00.019Z,2008
2017-05-31T05:07:40.613Z,2056
2017-05-31T05:08:21.193Z,1716
2017-05-31T05:09:01.789Z,1564
2017-05-31T05:09:42.388Z,1600
2017-05-31T05:10:22.978Z,1692
2017-05-31T05:11:03.549Z,1668
2017-05-31T05:11:44.144Z,1696
2017-05-31T05:12:24.724Z,1708
2017-05-31T05:13:05.321Z,2084
2017-05-31T05:13:45.890Z,2292
2017-05-31T05:14:26.499Z,2324
2017-05-31T05:15:07.144Z,2640
2017-05-31T05:15:47.728Z,2508
2017-05-31T05:16:28.320Z,3728
2017-05-31T05:17:08.895Z,5164
2017-05-31T05:17:49.484Z,6208
2017-05-31T05:18:30.097Z,6092
2017-05-31T05:19:10.672Z,6568
2017-05-31T05:19:51.260Z,8368
2017-05-31T05:20:31.852Z,6916
2017-05-31T05:21:12.423Z,4988
2017-05-31T05:21:53.012Z,4860
2017-05-31T05:22:33.614Z,4304
2017-05-31T05:23:14.203Z,6944
2017-05-31T05:23:54.786Z,8116
2017-05-31T05:24:35.375Z,9336
2017-05-31T05:25:15.949Z,5900
2017-05-31T05:25:56.558Z,8768
2017-05-31T05:26:37.158Z,29632
2017-05-31T05:27:17.745Z,37984
2017-05-31T05:27:58.335Z,45696
2017-05-31T05:28:39.068Z,9116
2017-05-31T05:29:19.649Z,53312
2017-05-31T05:30:00.246Z,54688
2017-05-31T05:30:40.905Z,32672
2017-05-31T05:31:21.504Z,50592
2017-05-31T05:32:02.111Z,45088
2017-05-31T05:32:42.693Z,7152
2017-05-31T05:33:23.358Z,34912
2017-05-31T05:34:04.120Z,48608
2017-05-31T05:34:44.776Z,12828
2017-05-31T05:35:25.391Z,49696
2017-05-31T05:36:06.000Z,38432
2017-05-31T05:36:46.625Z,53504
2017-05-31T05:37:27.253Z,57440
2017-05-31T05:38:07.865Z,54080
2017-05-31T05:38:48.452Z,59296
2017-05-31T05:39:29.055Z,41472
2017-05-31T05:40:09.656Z,15112
2017-05-31T05:40:50.267Z,8464
2017-05-31T05:41:30.861Z,9184
2017-05-31T05:42:11.512Z,7984
2017-05-31T05:42:52.135Z,7952
2017-05-31T05:43:32.735Z,6680
2017-05-31T05:44:13.361Z,6328
2017-05-31T05:44:53.953Z,10404
2017-05-31T05:45:34.566Z,31712
2017-05-31T05:46:15.186Z,59456
2017-05-31T05:46:55.800Z,55552
2017-05-31T05:47:36.392Z,56960
2017-05-31T05:48:16.997Z,18816
2017-05-31T05:48:57.585Z,16616
2017-05-31T05:49:38.214Z,50464
2017-05-31T05:50:18.802Z,57504
2017-05-31T05:50:59.419Z,61344
2017-05-31T05:51:40.004Z,18016
2017-05-31T05:52:20.615Z,16456
2017-05-31T05:53:01.199Z,48960
2017-05-31T05:53:41.808Z,28512
2017-05-31T05:54:22.416Z,66240
2017-05-31T05:55:03.014Z,66240
2017-05-31T05:55:44.881Z,70560
2017-05-31T05:56:26.415Z,67360
2017-05-31T05:57:08.023Z,65120
2017-05-31T05:57:48.634Z,45984
2017-05-31T05:58:29.400Z,71008
2017-05-31T05:59:10.013Z,70752
2017-05-31T05:59:50.788Z,70464
2017-05-31T06:00:31.384Z,71040
2017-05-31T06:01:12.291Z,74048
2017-05-31T06:01:52.924Z,73184
2017-05-31T06:02:33.555Z,77152
2017-05-31T06:03:14.196Z,76448
2017-05-31T06:03:54.864Z,78464
2017-05-31T06:04:35.473Z,79456
2017-05-31T06:05:16.112Z,77920
2017-05-31T06:05:56.702Z,76512
2017-05-31T06:06:38.294Z,77600
2017-05-31T06:07:18.978Z,80384
2017-05-31T06:07:59.533Z,69632
2017-05-31T06:08:40.117Z,81888
2017-05-31T06:09:21.098Z,80672
2017-05-31T06:10:01.706Z,71904
2017-05-31T06:10:42.294Z,16316
2017-05-31T06:11:22.895Z,10804
2017-05-31T06:12:03.637Z,7736
2017-05-31T06:12:44.238Z,77472
2017-05-31T06:13:24.859Z,80480
2017-05-31T06:14:05.469Z,79744
2017-05-31T06:14:46.078Z,72544
2017-05-31T06:15:26.684Z,72992
2017-05-31T06:16:12.675Z,78816
2017-05-31T06:16:54.325Z,77696
2017-05-31T06:17:34.955Z,74016
2017-05-31T06:18:15.521Z,71424
2017-05-31T06:18:56.080Z,69728
2017-05-31T06:19:36.679Z,67680
2017-05-31T06:20:20.302Z,70272
2017-05-31T06:21:00.892Z,70272
2017-05-31T06:21:41.483Z,45664
2017-05-31T06:22:22.094Z,59936
2017-05-31T06:23:02.674Z,78880
2017-05-31T06:23:43.265Z,60960
2017-05-31T06:24:23.854Z,34848
2017-05-31T06:25:04.455Z,22464
2017-05-31T06:25:46.208Z,73504
2017-05-31T06:26:26.792Z,37024
2017-05-31T06:27:07.379Z,78272
2017-05-31T06:27:47.997Z,74656
2017-05-31T06:28:28.594Z,69024
2017-05-31T06:29:09.194Z,67008
2017-05-31T06:29:50.991Z,42976
2017-05-31T06:30:31.611Z,51200
2017-05-31T06:31:12.248Z,75936
2017-05-31T06:31:52.830Z,74944
2017-05-31T06:32:33.431Z,79872
2017-05-31T06:33:14.036Z,82752
2017-05-31T06:33:54.676Z,82048
2017-05-31T06:34:35.221Z,79936
2017-05-31T06:35:15.837Z,84352
2017-05-31T06:35:56.429Z,75712
2017-05-31T06:36:37.029Z,77088
2017-05-31T06:37:17.611Z,34176
2017-05-31T06:37:58.214Z,80640
2017-05-31T06:38:38.810Z,11984
2017-05-31T06:39:19.932Z,12176
2017-05-31T06:40:04.441Z,71616
2017-05-31T06:40:47.637Z,15040
2017-05-31T06:41:28.233Z,11232
2017-05-31T06:42:10.539Z,10244
2017-05-31T06:42:54.732Z,15296
2017-05-31T06:43:35.346Z,42528
2017-05-31T06:44:21.906Z,28576
2017-05-31T06:45:22.237Z,83552
2017-05-31T06:46:14.437Z,80896
2017-05-31T06:46:56.197Z,55264
2017-05-31T06:47:38.717Z,12512
2017-05-31T06:48:19.305Z,6828
2017-05-31T06:48:59.891Z,8584
2017-05-31T06:49:40.507Z,58400
2017-05-31T06:50:21.089Z,7280
2017-05-31T06:51:01.678Z,5628
2017-05-31T06:51:42.272Z,13176
2017-05-31T06:52:22.874Z,77728
2017-05-31T06:53:03.469Z,52288
2017-05-31T06:53:44.072Z,47424
2017-05-31T06:54:24.677Z,80608
2017-05-31T06:55:05.290Z,18528
2017-05-31T06:55:45.881Z,80416
2017-05-31T06:56:26.468Z,79200
2017-05-31T06:57:07.049Z,75712
2017-05-31T06:57:47.633Z,78848
2017-05-31T06:58:28.232Z,46496
2017-05-31T06:59:08.857Z,45856
2017-05-31T06:59:49.462Z,77152
2017-05-31T07:00:30.064Z,77312
2017-05-31T07:01:16.430Z,16316
2017-05-31T07:01:58.060Z,80480
2017-05-31T07:02:38.659Z,76896
2017-05-31T07:03:19.236Z,14748
2017-05-31T07:03:59.828Z,60096
2017-05-31T07:04:40.415Z,31392
2017-05-31T07:05:21.022Z,77248
2017-05-31T07:06:01.629Z,78688
2017-05-31T07:06:42.227Z,10292
2017-05-31T07:07:22.823Z,8808
2017-05-31T07:08:05.623Z,55392
2017-05-31T07:08:46.994Z,22016
2017-05-31T07:09:27.590Z,48608
2017-05-31T07:10:11.409Z,78688
2017-05-31T07:10:54.554Z,78528
2017-05-31T07:11:37.653Z,78912
2017-05-31T07:12:19.932Z,78368
2017-05-31T07:13:04.492Z,75360
2017-05-31T07:13:45.145Z,72896
2017-05-31T07:14:25.740Z,75488
2017-05-31T07:15:09.933Z,76896
2017-05-31T07:15:52.718Z,79712
2017-05-31T07:16:33.311Z,78016
2017-05-31T07:17:13.896Z,79712
2017-05-31T07:17:54.490Z,18144
2017-05-31T07:18:35.077Z,78368
2017-05-31T07:19:15.710Z,82016
2017-05-31T07:19:56.321Z,19712
2017-05-31T07:20:36.908Z,26624
2017-05-31T07:21:17.507Z,10068
2017-05-31T07:21:59.799Z,6660
2017-05-31T07:22:40.381Z,4856
2017-05-31T07:23:21.015Z,3472
2017-05-31T07:24:01.627Z,2864
2017-05-31T07:24:42.215Z,2568
2017-05-31T07:25:22.805Z,2284
2017-05-31T07:26:04.165Z,2176
2017-05-31T07:26:49.286Z,1928
2017-05-31T07:27:31.581Z,1748
2017-05-31T07:28:12.269Z,1816
2017-05-31T07:28:52.868Z,1896
2017-05-31T07:29:34.292Z,1980
2017-05-31T07:30:17.738Z,1988
2017-05-31T07:30:58.332Z,2036
2017-05-31T07:31:38.921Z,2068
2017-05-31T07:32:19.511Z,2036
2017-05-31T07:33:00.097Z,2268
2017-05-31T07:33:40.681Z,2696
2017-05-31T07:34:21.261Z,3764
2017-05-31T07:35:04.217Z,3188
2017-05-31T07:35:48.544Z,2924
2017-05-31T07:36:29.131Z,2360
2017-05-31T07:37:09.720Z,2220
2017-05-31T07:37:50.322Z,2496
2017-05-31T07:38:34.978Z,3900
2017-05-31T07:39:19.778Z,74592
2017-05-31T07:40:00.452Z,16164
2017-05-31T07:40:41.037Z,31232
2017-05-31T07:41:21.624Z,13920
2017-05-31T07:42:04.478Z,12224
2017-05-31T07:42:46.872Z,8932
2017-05-31T07:43:27.461Z,13840
2017-05-31T07:44:08.054Z,7608
2017-05-31T07:44:48.648Z,5908
2017-05-31T07:45:29.234Z,5068
2017-05-31T07:46:09.812Z,4140
2017-05-31T07:46:51.550Z,2900
2017-05-31T07:47:32.133Z,2088
2017-05-31T07:48:12.775Z,1972
2017-05-31T07:48:56.080Z,2088
2017-05-31T07:49:36.663Z,2312
2017-05-31T07:50:17.248Z,3156
2017-05-31T07:50:57.824Z,5032
2017-05-31T07:51:38.441Z,97280
2017-05-31T07:52:21.638Z,96672
2017-05-31T07:53:03.457Z,97120
2017-05-31T07:53:44.047Z,95296
2017-05-31T07:54:24.679Z,93792
2017-05-31T07:55:05.346Z,93056
2017-05-31T07:55:45.928Z,92704
2017-05-31T07:56:26.666Z,94784
2017-05-31T07:57:07.268Z,80672
2017-05-31T07:57:47.874Z,85568
2017-05-31T07:58:28.480Z,11220
2017-05-31T07:59:09.067Z,38208
2017-05-31T07:59:50.011Z,12952
2017-05-31T08:00:30.631Z,7996
2017-05-31T08:01:11.222Z,6048
2017-05-31T08:01:51.820Z,4896
2017-05-31T08:02:32.415Z,17856
2017-05-31T08:03:13.006Z,17664
2017-05-31T08:03:53.591Z,23424
2017-05-31T08:04:34.188Z,11324
2017-05-31T08:05:14.782Z,20512
2017-05-31T08:05:56.097Z,20224
2017-05-31T08:06:36.698Z,19328
2017-05-31T08:07:17.276Z,18496
2017-05-31T08:07:57.848Z,18016
2017-05-31T08:08:42.885Z,17760
2017-05-31T08:09:27.468Z,16800
2017-05-31T08:10:09.169Z,15872
2017-05-31T08:10:49.779Z,15320
2017-05-31T08:11:30.368Z,15700
2017-05-31T08:12:11.158Z,15384
2017-05-31T08:12:51.746Z,9756
2017-05-31T08:13:32.338Z,15584
2017-05-31T08:14:12.937Z,14604
2017-05-31T08:14:53.527Z,13976
2017-05-31T08:15:34.112Z,13420
2017-05-31T08:16:14.704Z,13124
2017-05-31T08:16:55.284Z,12812
2017-05-31T08:17:35.874Z,12180
2017-05-31T08:18:16.467Z,14924
2017-05-31T08:18:57.052Z,13668
2017-05-31T08:19:37.706Z,14324
2017-05-31T08:20:18.290Z,11044
2017-05-31T08:20:58.909Z,8020
2017-05-31T08:21:39.478Z,5980
2017-05-31T08:22:20.083Z,13072
2017-05-31T08:23:00.692Z,7352
2017-05-31T08:23:41.280Z,5104
2017-05-31T08:24:21.869Z,3232
2017-05-31T08:25:02.449Z,2248
2017-05-31T08:25:43.024Z,1796
2017-05-31T08:26:23.674Z,1648
2017-05-31T08:27:04.261Z,1844
2017-05-31T08:27:44.834Z,2180
2017-05-31T08:28:25.433Z,2456
2017-05-31T08:29:06.031Z,2168
2017-05-31T08:29:46.594Z,1848
2017-05-31T08:30:27.243Z,1696
2017-05-31T08:31:07.789Z,1824
2017-05-31T08:31:48.381Z,1876
2017-05-31T08:32:29.001Z,1792
2017-05-31T08:33:09.585Z,1728
2017-05-31T08:33:50.170Z,2056
2017-05-31T08:34:30.763Z,6884
2017-05-31T08:35:11.341Z,9664
2017-05-31T08:35:51.927Z,10744
2017-05-31T08:36:32.538Z,10492
2017-05-31T08:37:13.127Z,9948
2017-05-31T08:37:53.757Z,9316
2017-05-31T08:38:34.345Z,8688
2017-05-31T08:39:14.948Z,8076
2017-05-31T08:39:55.541Z,7272
2017-05-31T08:40:36.120Z,7904
2017-05-31T08:41:16.798Z,8484
2017-05-31T08:41:57.418Z,9152
2017-05-31T08:42:38.021Z,8752
2017-05-31T08:43:18.616Z,8340
2017-05-31T08:43:59.242Z,7980
2017-05-31T08:44:39.874Z,7716
2017-05-31T08:45:20.506Z,7960
2017-05-31T08:46:01.123Z,8232
2017-05-31T08:46:41.737Z,7760
2017-05-31T08:47:22.345Z,4844
2017-05-31T08:48:02.934Z,4620
2017-05-31T08:48:43.522Z,6016
2017-05-31T08:49:24.106Z,8344
2017-05-31T08:50:04.735Z,7016
2017-05-31T08:50:45.333Z,8476
2017-05-31T08:51:25.980Z,6960
2017-05-31T08:52:06.588Z,6512
2017-05-31T08:52:47.218Z,9316
2017-05-31T08:53:27.800Z,9812
2017-05-31T08:54:08.388Z,7728
2017-05-31T08:54:48.982Z,9196
2017-05-31T08:55:29.560Z,10164
2017-05-31T08:56:10.173Z,10480
2017-05-31T08:56:50.764Z,9864
2017-05-31T08:57:31.361Z,9264
2017-05-31T08:58:11.937Z,8924
2017-05-31T08:58:52.526Z,6952
2017-05-31T08:59:33.128Z,9712
2017-05-31T09:00:13.727Z,9556
2017-05-31T09:00:54.303Z,7656
2017-05-31T09:01:34.890Z,9180
2017-05-31T09:02:15.470Z,9804
2017-05-31T09:02:56.093Z,9868
2017-05-31T09:03:36.683Z,10100
2017-05-31T09:04:17.277Z,9532
2017-05-31T09:04:57.875Z,9044
2017-05-31T09:05:38.471Z,6752
2017-05-31T09:06:19.056Z,7884
2017-05-31T09:06:59.641Z,7484
2017-05-31T09:07:40.228Z,6636
2017-05-31T09:08:20.824Z,5968
2017-05-31T09:09:01.422Z,5660
2017-05-31T09:09:42.030Z,5320
2017-05-31T09:10:22.619Z,5432
2017-05-31T09:11:03.210Z,7304
2017-05-31T09:11:43.806Z,7656
2017-05-31T09:12:24.384Z,7368
2017-05-31T09:13:04.958Z,7044
2017-05-31T09:13:45.544Z,8588
2017-05-31T09:14:26.128Z,8400
2017-05-31T09:15:06.710Z,7828
2017-05-31T09:15:47.309Z,6056
2017-05-31T09:16:27.919Z,4708
2017-05-31T09:17:08.517Z,4784
2017-05-31T09:17:49.118Z,4852
2017-05-31T09:18:29.714Z,4688
2017-05-31T09:19:10.297Z,4576
2017-05-31T09:19:50.920Z,4680
2017-05-31T09:20:31.517Z,4596
2017-05-31T09:21:12.107Z,5820
2017-05-31T09:21:52.737Z,4412